Observations for LEEDS AND BRADFORD, United Kingdom (EGNM)

EGNM 191320Z VRB04KT 9999 FEW028 18/12 Q1030
EGNM 191250Z 24005KT 190V290 9999 FEW028 18/11 Q1031
EGNM 191220Z 28005KT 200V330 9999 FEW022 18/11 Q1031
EGNM 191150Z 25005KT 200V290 9999 FEW022 17/11 Q1031
EGNM 191120Z 25005KT 200V300 9999 FEW020 17/11 Q1031
EGNM 191050Z 27006KT 9999 FEW016 16/11 Q1032
EGNM 191020Z 25006KT 210V290 9999 FEW013 15/11 Q1032
EGNM 190950Z 26006KT 240V300 9999 FEW012 14/11 Q1032
EGNM 190920Z 26006KT CAVOK 13/10 Q1032  
EGNM 190850Z 26007KT CAVOK 12/10 Q1031  
EGNM 190820Z 25004KT 9999 VCFG NSC 12/10 Q1031  
EGNM 190750Z VRB03KT 9999 VCFG NSC 11/09 Q1031  
EGNM 190720Z 26004KT 230V290 9999 VCFG NSC 10/08 Q1031  
EGNM 190650Z 27005KT 9999 VCFG NSC 09/08 Q1031  
EGNM 190620Z 27006KT 9999 VCFG NSC 08/07 Q1030  
EGNM 190550Z 27006KT 9999 VCFG NSC 07/07 Q1030  
EGNM 190520Z 27006KT 9999 MIFG NSC 07/06 Q1030  
EGNM 190450Z 27006KT CAVOK 08/07 Q1030  
EGNM 190420Z 28006KT CAVOK 08/07 Q1030  
EGNM 190350Z 29007KT CAVOK 09/08 Q1030  
EGNM 190320Z 28006KT CAVOK 08/08 Q1030  
EGNM 190250Z 27006KT CAVOK 08/07 Q1030  
EGNM 190220Z 28005KT CAVOK 09/08 Q1030  
EGNM 190150Z 29005KT CAVOK 09/08 Q1030  
EGNM 190120Z 28006KT CAVOK 09/08 Q1030  
EGNM 190050Z 27006KT CAVOK 09/08 Q1030  
EGNM 190020Z 28006KT CAVOK 09/08 Q1031  
EGNM 182350Z 28006KT CAVOK 09/08 Q1031  
EGNM 182320Z 28006KT CAVOK 10/09 Q1031  
EGNM 182250Z 27005KT CAVOK 10/08 Q1031  
EGNM 182220Z 28006KT CAVOK 10/08 Q1031  
EGNM 182150Z 28007KT CAVOK 11/09 Q1031  
EGNM 182120Z 28007KT CAVOK 11/09 Q1031  
EGNM 182050Z 28008KT CAVOK 11/09 Q1030  
EGNM 182020Z 29007KT CAVOK 11/09 Q1030  
EGNM 181950Z 29008KT CAVOK 12/09 Q1030  
EGNM 181920Z 29008KT CAVOK 12/09 Q1030  
EGNM 181850Z 30008KT CAVOK 13/09 Q1030  
EGNM 181820Z 29008KT CAVOK 13/09 Q1029  
EGNM 181750Z 30009KT CAVOK 14/09 Q1029  
EGNM 181720Z 30009KT 9999 FEW048 14/09 Q1029
EGNM 181650Z 29011KT 9999 FEW048 14/08 Q1029
EGNM 181620Z 30009KT 9999 FEW039 SCT048 14/08 Q1029 
EGNM 181550Z 28010KT 9999 FEW025 15/08 Q1029
EGNM 181520Z 28009KT 250V310 9999 FEW024 15/09 Q1029
EGNM 181450Z 29008KT 260V320 9999 FEW040 15/08 Q1029
EGNM 181420Z 31009KT 270V330 9999 FEW040 15/07 Q1029
EGNM 181350Z 29008KT 270V330 CAVOK 15/07 Q1029  
EGNM 181320Z 30008KT 280V340 CAVOK 15/06 Q1030  
EGNM 181250Z 31007KT 280V340 CAVOK 15/05 Q1030